sensor_id;sensor_type;location;lat;lon;timestamp;P1;durP1;ratioP1;P2;durP2;ratioP2
15697;SDS011;7949;48.726;9.102;2023-02-28T00:01:22;5.40;;;2.85;;
15697;SDS011;7949;48.726;9.102;2023-02-28T00:03:49;6.15;;;2.70;;
15697;SDS011;7949;48.726;9.102;2023-02-28T00:06:16;4.70;;;2.70;;
15697;SDS011;7949;48.726;9.102;2023-02-28T00:08:44;5.25;;;3.15;;
15697;SDS011;7949;48.726;9.102;2023-02-28T00:11:12;5.70;;;3.10;;
15697;SDS011;7949;48.726;9.102;2023-02-28T00:13:41;4.90;;;2.55;;
15697;SDS011;7949;48.726;9.102;2023-02-28T00:16:12;5.10;;;2.70;;
15697;SDS011;7949;48.726;9.102;2023-02-28T00:18:40;3.42;;;2.35;;
15697;SDS011;7949;48.726;9.102;2023-02-28T00:21:08;3.95;;;2.38;;
15697;SDS011;7949;48.726;9.102;2023-02-28T00:23:35;7.05;;;2.78;;
15697;SDS011;7949;48.726;9.102;2023-02-28T00:26:04;4.72;;;2.90;;
15697;SDS011;7949;48.726;9.102;2023-02-28T00:28:31;7.63;;;3.25;;
15697;SDS011;7949;48.726;9.102;2023-02-28T00:30:58;6.63;;;3.22;;
15697;SDS011;7949;48.726;9.102;2023-02-28T00:33:25;5.40;;;2.42;;
15697;SDS011;7949;48.726;9.102;2023-02-28T00:35:52;5.57;;;2.85;;
15697;SDS011;7949;48.726;9.102;2023-02-28T00:38:26;5.28;;;2.88;;
15697;SDS011;7949;48.726;9.102;2023-02-28T00:40:53;5.95;;;2.40;;
15697;SDS011;7949;48.726;9.102;2023-02-28T00:43:21;4.45;;;2.53;;
15697;SDS011;7949;48.726;9.102;2023-02-28T00:45:48;5.88;;;2.50;;
15697;SDS011;7949;48.726;9.102;2023-02-28T00:48:15;6.13;;;3.08;;
15697;SDS011;7949;48.726;9.102;2023-02-28T00:50:42;5.47;;;2.78;;
15697;SDS011;7949;48.726;9.102;2023-02-28T00:53:09;6.15;;;2.40;;
15697;SDS011;7949;48.726;9.102;2023-02-28T00:55:36;5.00;;;2.45;;
15697;SDS011;7949;48.726;9.102;2023-02-28T00:58:03;5.15;;;2.42;;
15697;SDS011;7949;48.726;9.102;2023-02-28T01:00:31;4.32;;;2.60;;
15697;SDS011;7949;48.726;9.102;2023-02-28T01:02:58;6.13;;;2.50;;
15697;SDS011;7949;48.726;9.102;2023-02-28T01:05:25;5.60;;;3.00;;
15697;SDS011;7949;48.726;9.102;2023-02-28T01:07:52;4.90;;;2.60;;
15697;SDS011;7949;48.726;9.102;2023-02-28T01:10:19;9.30;;;2.90;;
15697;SDS011;7949;48.726;9.102;2023-02-28T01:12:46;7.18;;;2.85;;
15697;SDS011;7949;48.726;9.102;2023-02-28T01:15:13;7.03;;;3.03;;
15697;SDS011;7949;48.726;9.102;2023-02-28T01:17:41;5.68;;;3.03;;
15697;SDS011;7949;48.726;9.102;2023-02-28T01:20:09;5.88;;;3.10;;
15697;SDS011;7949;48.726;9.102;2023-02-28T01:22:36;4.93;;;2.70;;
15697;SDS011;7949;48.726;9.102;2023-02-28T01:25:04;5.45;;;2.55;;
15697;SDS011;7949;48.726;9.102;2023-02-28T01:27:31;6.35;;;3.15;;
15697;SDS011;7949;48.726;9.102;2023-02-28T01:29:59;5.20;;;3.38;;
15697;SDS011;7949;48.726;9.102;2023-02-28T01:32:26;7.20;;;3.17;;
15697;SDS011;7949;48.726;9.102;2023-02-28T01:34:54;5.55;;;3.20;;
15697;SDS011;7949;48.726;9.102;2023-02-28T01:37:21;6.53;;;3.05;;
15697;SDS011;7949;48.726;9.102;2023-02-28T01:39:48;6.35;;;2.97;;
15697;SDS011;7949;48.726;9.102;2023-02-28T01:42:15;7.25;;;3.70;;
15697;SDS011;7949;48.726;9.102;2023-02-28T01:44:59;6.45;;;2.88;;
15697;SDS011;7949;48.726;9.102;2023-02-28T01:47:29;4.85;;;3.13;;
15697;SDS011;7949;48.726;9.102;2023-02-28T01:50:01;7.30;;;3.03;;
15697;SDS011;7949;48.726;9.102;2023-02-28T01:52:30;5.30;;;3.23;;
15697;SDS011;7949;48.726;9.102;2023-02-28T01:54:59;6.65;;;3.22;;
15697;SDS011;7949;48.726;9.102;2023-02-28T01:57:29;5.68;;;3.13;;
15697;SDS011;7949;48.726;9.102;2023-02-28T02:00:04;6.30;;;3.35;;
15697;SDS011;7949;48.726;9.102;2023-02-28T02:02:34;7.30;;;3.40;;
15697;SDS011;7949;48.726;9.102;2023-02-28T02:05:04;5.80;;;3.60;;
15697;SDS011;7949;48.726;9.102;2023-02-28T02:07:33;8.82;;;3.72;;
15697;SDS011;7949;48.726;9.102;2023-02-28T02:10:04;5.38;;;3.05;;
15697;SDS011;7949;48.726;9.102;2023-02-28T02:12:38;4.97;;;3.38;;
15697;SDS011;7949;48.726;9.102;2023-02-28T02:15:22;5.78;;;3.10;;
15697;SDS011;7949;48.726;9.102;2023-02-28T02:17:57;6.18;;;3.55;;
15697;SDS011;7949;48.726;9.102;2023-02-28T02:20:36;8.50;;;3.70;;
15697;SDS011;7949;48.726;9.102;2023-02-28T02:26:31;7.47;;;3.30;;
15697;SDS011;7949;48.726;9.102;2023-02-28T02:35:30;6.40;;;3.92;;
15697;SDS011;7949;48.726;9.102;2023-02-28T02:38:03;8.05;;;4.03;;
15697;SDS011;7949;48.726;9.102;2023-02-28T02:40:37;5.38;;;3.67;;
15697;SDS011;7949;48.726;9.102;2023-02-28T02:43:11;7.30;;;3.40;;
15697;SDS011;7949;48.726;9.102;2023-02-28T02:45:43;8.27;;;4.03;;
15697;SDS011;7949;48.726;9.102;2023-02-28T02:48:13;6.05;;;3.63;;
15697;SDS011;7949;48.726;9.102;2023-02-28T02:50:48;6.45;;;3.67;;
15697;SDS011;7949;48.726;9.102;2023-02-28T02:53:19;9.32;;;4.30;;
15697;SDS011;7949;48.726;9.102;2023-02-28T02:55:51;7.93;;;3.80;;
15697;SDS011;7949;48.726;9.102;2023-02-28T02:58:20;10.02;;;4.82;;
15697;SDS011;7949;48.726;9.102;2023-02-28T03:00:52;7.95;;;4.40;;
15697;SDS011;7949;48.726;9.102;2023-02-28T03:03:21;9.57;;;3.78;;
15697;SDS011;7949;48.726;9.102;2023-02-28T03:05:55;7.00;;;4.22;;
15697;SDS011;7949;48.726;9.102;2023-02-28T03:08:24;7.22;;;4.47;;
15697;SDS011;7949;48.726;9.102;2023-02-28T03:10:54;10.52;;;4.70;;
15697;SDS011;7949;48.726;9.102;2023-02-28T03:13:42;8.10;;;4.70;;
15697;SDS011;7949;48.726;9.102;2023-02-28T03:16:29;6.93;;;4.30;;
15697;SDS011;7949;48.726;9.102;2023-02-28T03:22:08;8.85;;;4.43;;
15697;SDS011;7949;48.726;9.102;2023-02-28T03:24:50;7.65;;;4.50;;
15697;SDS011;7949;48.726;9.102;2023-02-28T03:27:25;11.95;;;4.60;;
15697;SDS011;7949;48.726;9.102;2023-02-28T03:29:57;9.20;;;4.50;;
15697;SDS011;7949;48.726;9.102;2023-02-28T03:32:29;11.43;;;4.85;;
15697;SDS011;7949;48.726;9.102;2023-02-28T03:35:01;8.18;;;4.00;;
15697;SDS011;7949;48.726;9.102;2023-02-28T03:37:32;10.00;;;5.10;;
15697;SDS011;7949;48.726;9.102;2023-02-28T03:40:03;7.70;;;4.40;;
15697;SDS011;7949;48.726;9.102;2023-02-28T03:42:34;9.00;;;5.00;;
15697;SDS011;7949;48.726;9.102;2023-02-28T03:45:04;7.75;;;4.40;;
15697;SDS011;7949;48.726;9.102;2023-02-28T03:47:37;9.32;;;4.97;;
15697;SDS011;7949;48.726;9.102;2023-02-28T03:50:10;8.68;;;5.15;;
15697;SDS011;7949;48.726;9.102;2023-02-28T03:55:13;10.73;;;5.45;;
15697;SDS011;7949;48.726;9.102;2023-02-28T03:57:43;9.32;;;4.63;;
15697;SDS011;7949;48.726;9.102;2023-02-28T04:00:20;9.95;;;4.45;;
15697;SDS011;7949;48.726;9.102;2023-02-28T04:02:53;9.05;;;4.60;;
15697;SDS011;7949;48.726;9.102;2023-02-28T04:05:20;10.57;;;5.10;;
15697;SDS011;7949;48.726;9.102;2023-02-28T04:07:49;12.45;;;5.40;;
15697;SDS011;7949;48.726;9.102;2023-02-28T04:10:16;10.02;;;4.78;;
15697;SDS011;7949;48.726;9.102;2023-02-28T04:12:43;13.60;;;4.90;;
15697;SDS011;7949;48.726;9.102;2023-02-28T04:15:10;9.52;;;4.95;;
15697;SDS011;7949;48.726;9.102;2023-02-28T04:17:37;10.57;;;5.22;;
15697;SDS011;7949;48.726;9.102;2023-02-28T04:20:04;11.25;;;4.70;;
15697;SDS011;7949;48.726;9.102;2023-02-28T04:22:34;8.20;;;5.05;;
15697;SDS011;7949;48.726;9.102;2023-02-28T04:25:04;11.93;;;5.07;;
15697;SDS011;7949;48.726;9.102;2023-02-28T04:27:32;8.23;;;4.97;;
15697;SDS011;7949;48.726;9.102;2023-02-28T04:29:58;9.05;;;5.28;;
15697;SDS011;7949;48.726;9.102;2023-02-28T04:32:25;10.35;;;5.13;;
15697;SDS011;7949;48.726;9.102;2023-02-28T04:34:52;11.82;;;5.25;;
15697;SDS011;7949;48.726;9.102;2023-02-28T04:37:19;12.00;;;5.70;;
15697;SDS011;7949;48.726;9.102;2023-02-28T04:39:46;13.02;;;5.28;;
15697;SDS011;7949;48.726;9.102;2023-02-28T04:42:14;11.18;;;5.57;;
15697;SDS011;7949;48.726;9.102;2023-02-28T04:44:41;9.13;;;4.90;;
15697;SDS011;7949;48.726;9.102;2023-02-28T04:47:08;9.43;;;4.97;;
15697;SDS011;7949;48.726;9.102;2023-02-28T04:49:35;8.30;;;5.22;;
15697;SDS011;7949;48.726;9.102;2023-02-28T04:52:03;9.50;;;5.28;;
15697;SDS011;7949;48.726;9.102;2023-02-28T04:54:32;11.80;;;5.55;;
15697;SDS011;7949;48.726;9.102;2023-02-28T04:56:59;12.65;;;4.97;;
15697;SDS011;7949;48.726;9.102;2023-02-28T04:59:27;13.45;;;5.30;;
15697;SDS011;7949;48.726;9.102;2023-02-28T05:01:54;9.50;;;5.22;;
15697;SDS011;7949;48.726;9.102;2023-02-28T05:04:21;11.48;;;5.53;;
15697;SDS011;7949;48.726;9.102;2023-02-28T05:06:48;13.35;;;5.35;;
15697;SDS011;7949;48.726;9.102;2023-02-28T05:09:15;11.77;;;5.35;;
15697;SDS011;7949;48.726;9.102;2023-02-28T05:11:42;12.35;;;5.53;;
15697;SDS011;7949;48.726;9.102;2023-02-28T05:14:09;11.40;;;5.70;;
15697;SDS011;7949;48.726;9.102;2023-02-28T05:16:38;18.50;;;6.30;;
15697;SDS011;7949;48.726;9.102;2023-02-28T05:19:05;10.45;;;5.72;;
15697;SDS011;7949;48.726;9.102;2023-02-28T05:21:33;10.48;;;5.43;;
15697;SDS011;7949;48.726;9.102;2023-02-28T05:24:02;9.15;;;4.93;;
15697;SDS011;7949;48.726;9.102;2023-02-28T05:26:31;11.48;;;6.35;;
15697;SDS011;7949;48.726;9.102;2023-02-28T05:29:00;11.80;;;5.43;;
15697;SDS011;7949;48.726;9.102;2023-02-28T05:31:27;11.38;;;6.78;;
15697;SDS011;7949;48.726;9.102;2023-02-28T05:33:56;12.95;;;5.97;;
15697;SDS011;7949;48.726;9.102;2023-02-28T05:36:23;12.05;;;5.72;;
15697;SDS011;7949;48.726;9.102;2023-02-28T05:38:51;11.02;;;5.60;;
15697;SDS011;7949;48.726;9.102;2023-02-28T05:41:18;12.68;;;6.25;;
15697;SDS011;7949;48.726;9.102;2023-02-28T05:43:46;12.85;;;6.07;;
15697;SDS011;7949;48.726;9.102;2023-02-28T05:46:13;10.98;;;5.63;;
15697;SDS011;7949;48.726;9.102;2023-02-28T05:48:41;11.65;;;6.93;;
15697;SDS011;7949;48.726;9.102;2023-02-28T05:51:13;11.63;;;6.00;;
15697;SDS011;7949;48.726;9.102;2023-02-28T05:53:40;15.10;;;6.18;;
15697;SDS011;7949;48.726;9.102;2023-02-28T05:56:07;11.68;;;5.88;;
15697;SDS011;7949;48.726;9.102;2023-02-28T05:58:34;9.48;;;5.65;;
15697;SDS011;7949;48.726;9.102;2023-02-28T06:01:18;11.85;;;6.10;;
15697;SDS011;7949;48.726;9.102;2023-02-28T06:03:46;11.63;;;6.03;;
15697;SDS011;7949;48.726;9.102;2023-02-28T06:06:15;12.43;;;6.55;;
15697;SDS011;7949;48.726;9.102;2023-02-28T06:08:42;14.82;;;7.57;;
15697;SDS011;7949;48.726;9.102;2023-02-28T06:11:10;11.90;;;6.53;;
15697;SDS011;7949;48.726;9.102;2023-02-28T06:13:37;14.85;;;6.28;;
15697;SDS011;7949;48.726;9.102;2023-02-28T06:16:04;12.82;;;6.15;;
15697;SDS011;7949;48.726;9.102;2023-02-28T06:18:32;11.80;;;5.93;;
15697;SDS011;7949;48.726;9.102;2023-02-28T06:20:59;13.57;;;6.97;;
15697;SDS011;7949;48.726;9.102;2023-02-28T06:23:27;11.70;;;6.65;;
15697;SDS011;7949;48.726;9.102;2023-02-28T06:25:54;12.60;;;6.97;;
15697;SDS011;7949;48.726;9.102;2023-02-28T06:28:23;11.75;;;6.43;;
15697;SDS011;7949;48.726;9.102;2023-02-28T06:30:50;13.55;;;7.50;;
15697;SDS011;7949;48.726;9.102;2023-02-28T06:33:17;16.30;;;8.30;;
15697;SDS011;7949;48.726;9.102;2023-02-28T06:35:44;14.98;;;8.25;;
15697;SDS011;7949;48.726;9.102;2023-02-28T06:38:13;16.23;;;7.22;;
15697;SDS011;7949;48.726;9.102;2023-02-28T06:40:41;24.40;;;7.75;;
15697;SDS011;7949;48.726;9.102;2023-02-28T06:43:08;13.70;;;6.43;;
15697;SDS011;7949;48.726;9.102;2023-02-28T06:45:40;13.52;;;7.15;;
15697;SDS011;7949;48.726;9.102;2023-02-28T06:48:08;12.85;;;6.88;;
15697;SDS011;7949;48.726;9.102;2023-02-28T06:50:35;16.58;;;8.55;;
15697;SDS011;7949;48.726;9.102;2023-02-28T06:53:02;13.75;;;7.75;;
15697;SDS011;7949;48.726;9.102;2023-02-28T06:55:29;17.42;;;6.85;;
15697;SDS011;7949;48.726;9.102;2023-02-28T06:57:58;13.73;;;7.57;;
15697;SDS011;7949;48.726;9.102;2023-02-28T07:00:25;15.02;;;6.95;;
15697;SDS011;7949;48.726;9.102;2023-02-28T07:02:52;14.05;;;7.40;;
15697;SDS011;7949;48.726;9.102;2023-02-28T07:05:20;14.57;;;6.97;;
15697;SDS011;7949;48.726;9.102;2023-02-28T07:07:46;16.08;;;8.13;;
15697;SDS011;7949;48.726;9.102;2023-02-28T07:15:09;16.42;;;7.45;;
15697;SDS011;7949;48.726;9.102;2023-02-28T16:55:42;22.42;;;9.85;;
15697;SDS011;7949;48.726;9.102;2023-02-28T16:58:11;25.65;;;9.77;;
15697;SDS011;7949;48.726;9.102;2023-02-28T17:00:41;16.42;;;8.35;;
15697;SDS011;7949;48.726;9.102;2023-02-28T17:03:09;17.92;;;9.13;;
15697;SDS011;7949;48.726;9.102;2023-02-28T17:05:47;16.13;;;8.32;;
15697;SDS011;7949;48.726;9.102;2023-02-28T17:08:14;20.45;;;9.80;;
15697;SDS011;7949;48.726;9.102;2023-02-28T17:10:42;19.70;;;9.70;;
15697;SDS011;7949;48.726;9.102;2023-02-28T17:13:09;19.92;;;9.82;;
15697;SDS011;7949;48.726;9.102;2023-02-28T17:15:37;19.15;;;9.15;;
15697;SDS011;7949;48.726;9.102;2023-02-28T17:18:05;18.20;;;9.63;;
15697;SDS011;7949;48.726;9.102;2023-02-28T17:20:33;17.10;;;9.63;;
15697;SDS011;7949;48.726;9.102;2023-02-28T17:23:00;21.77;;;10.10;;
15697;SDS011;7949;48.726;9.102;2023-02-28T17:25:27;22.00;;;10.05;;
15697;SDS011;7949;48.726;9.102;2023-02-28T17:27:55;20.13;;;10.25;;
15697;SDS011;7949;48.726;9.102;2023-02-28T17:30:23;20.27;;;8.90;;
15697;SDS011;7949;48.726;9.102;2023-02-28T17:32:52;25.13;;;11.13;;
15697;SDS011;7949;48.726;9.102;2023-02-28T17:35:19;19.42;;;10.13;;
15697;SDS011;7949;48.726;9.102;2023-02-28T17:37:45;22.05;;;10.25;;
15697;SDS011;7949;48.726;9.102;2023-02-28T17:40:13;19.40;;;9.80;;
15697;SDS011;7949;48.726;9.102;2023-02-28T17:42:40;20.67;;;9.85;;
15697;SDS011;7949;48.726;9.102;2023-02-28T17:45:09;20.20;;;9.95;;
15697;SDS011;7949;48.726;9.102;2023-02-28T17:47:36;16.27;;;9.25;;
15697;SDS011;7949;48.726;9.102;2023-02-28T17:50:04;23.83;;;11.32;;
15697;SDS011;7949;48.726;9.102;2023-02-28T17:52:31;20.17;;;9.82;;
15697;SDS011;7949;48.726;9.102;2023-02-28T17:55:01;22.02;;;10.93;;
15697;SDS011;7949;48.726;9.102;2023-02-28T17:57:29;23.73;;;11.85;;
15697;SDS011;7949;48.726;9.102;2023-02-28T17:59:56;25.27;;;11.65;;
15697;SDS011;7949;48.726;9.102;2023-02-28T18:02:24;18.15;;;9.48;;
15697;SDS011;7949;48.726;9.102;2023-02-28T18:04:52;22.67;;;10.07;;
15697;SDS011;7949;48.726;9.102;2023-02-28T18:07:19;19.15;;;9.73;;
15697;SDS011;7949;48.726;9.102;2023-02-28T18:09:47;22.95;;;11.07;;
15697;SDS011;7949;48.726;9.102;2023-02-28T18:12:14;25.73;;;10.88;;
15697;SDS011;7949;48.726;9.102;2023-02-28T18:14:41;24.10;;;11.05;;
15697;SDS011;7949;48.726;9.102;2023-02-28T18:17:10;20.08;;;10.40;;
15697;SDS011;7949;48.726;9.102;2023-02-28T18:19:39;27.40;;;11.25;;
15697;SDS011;7949;48.726;9.102;2023-02-28T18:22:06;19.33;;;10.00;;
15697;SDS011;7949;48.726;9.102;2023-02-28T18:24:34;23.10;;;11.30;;
15697;SDS011;7949;48.726;9.102;2023-02-28T18:27:01;24.75;;;11.63;;
15697;SDS011;7949;48.726;9.102;2023-02-28T18:29:28;18.15;;;10.55;;
15697;SDS011;7949;48.726;9.102;2023-02-28T18:31:56;22.92;;;10.77;;
15697;SDS011;7949;48.726;9.102;2023-02-28T18:34:24;24.15;;;11.93;;
15697;SDS011;7949;48.726;9.102;2023-02-28T18:36:53;25.35;;;12.48;;
15697;SDS011;7949;48.726;9.102;2023-02-28T18:39:21;23.67;;;11.25;;
15697;SDS011;7949;48.726;9.102;2023-02-28T18:41:48;23.70;;;11.75;;
15697;SDS011;7949;48.726;9.102;2023-02-28T18:44:15;25.27;;;12.80;;
15697;SDS011;7949;48.726;9.102;2023-02-28T18:46:42;24.63;;;11.85;;
15697;SDS011;7949;48.726;9.102;2023-02-28T18:49:09;27.33;;;12.80;;
15697;SDS011;7949;48.726;9.102;2023-02-28T18:51:36;26.90;;;12.00;;
15697;SDS011;7949;48.726;9.102;2023-02-28T18:54:04;24.65;;;12.15;;
15697;SDS011;7949;48.726;9.102;2023-02-28T18:56:31;26.92;;;12.70;;
15697;SDS011;7949;48.726;9.102;2023-02-28T18:58:58;26.13;;;12.60;;
15697;SDS011;7949;48.726;9.102;2023-02-28T19:01:26;25.92;;;12.50;;
15697;SDS011;7949;48.726;9.102;2023-02-28T19:03:56;30.38;;;13.50;;
15697;SDS011;7949;48.726;9.102;2023-02-28T19:06:24;29.48;;;13.25;;
15697;SDS011;7949;48.726;9.102;2023-02-28T19:08:53;27.83;;;13.07;;
15697;SDS011;7949;48.726;9.102;2023-02-28T19:11:22;29.00;;;12.48;;
15697;SDS011;7949;48.726;9.102;2023-02-28T19:13:50;32.35;;;13.32;;
15697;SDS011;7949;48.726;9.102;2023-02-28T19:16:17;31.92;;;13.02;;
15697;SDS011;7949;48.726;9.102;2023-02-28T19:18:46;29.17;;;11.73;;
15697;SDS011;7949;48.726;9.102;2023-02-28T19:21:19;29.40;;;12.43;;
15697;SDS011;7949;48.726;9.102;2023-02-28T19:23:48;32.97;;;14.02;;
15697;SDS011;7949;48.726;9.102;2023-02-28T19:26:16;31.13;;;13.02;;
15697;SDS011;7949;48.726;9.102;2023-02-28T19:28:46;35.00;;;14.05;;
15697;SDS011;7949;48.726;9.102;2023-02-28T19:31:13;33.63;;;14.30;;
15697;SDS011;7949;48.726;9.102;2023-02-28T19:33:41;28.70;;;13.18;;
15697;SDS011;7949;48.726;9.102;2023-02-28T19:36:08;33.08;;;13.80;;
15697;SDS011;7949;48.726;9.102;2023-02-28T19:38:41;30.35;;;13.85;;
15697;SDS011;7949;48.726;9.102;2023-02-28T19:41:09;31.33;;;14.48;;
15697;SDS011;7949;48.726;9.102;2023-02-28T19:44:56;33.63;;;14.55;;
15697;SDS011;7949;48.726;9.102;2023-02-28T20:20:27;31.23;;;13.18;;
15697;SDS011;7949;48.726;9.102;2023-02-28T20:22:53;32.65;;;13.80;;
15697;SDS011;7949;48.726;9.102;2023-02-28T20:25:20;35.28;;;13.75;;
15697;SDS011;7949;48.726;9.102;2023-02-28T20:27:48;34.67;;;14.18;;
15697;SDS011;7949;48.726;9.102;2023-02-28T20:30:15;27.95;;;12.35;;
15697;SDS011;7949;48.726;9.102;2023-02-28T20:32:46;36.28;;;14.40;;
15697;SDS011;7949;48.726;9.102;2023-02-28T20:35:12;34.45;;;14.05;;
15697;SDS011;7949;48.726;9.102;2023-02-28T20:37:41;32.15;;;13.07;;
15697;SDS011;7949;48.726;9.102;2023-02-28T20:40:08;33.63;;;13.32;;
15697;SDS011;7949;48.726;9.102;2023-02-28T20:42:36;30.02;;;13.35;;
15697;SDS011;7949;48.726;9.102;2023-02-28T20:45:03;36.03;;;13.10;;
15697;SDS011;7949;48.726;9.102;2023-02-28T20:47:30;27.50;;;12.23;;
15697;SDS011;7949;48.726;9.102;2023-02-28T20:49:57;26.27;;;12.75;;
15697;SDS011;7949;48.726;9.102;2023-02-28T20:52:24;27.65;;;12.40;;
15697;SDS011;7949;48.726;9.102;2023-02-28T20:54:52;30.30;;;12.43;;
15697;SDS011;7949;48.726;9.102;2023-02-28T20:57:19;24.15;;;11.75;;
15697;SDS011;7949;48.726;9.102;2023-02-28T20:59:46;25.85;;;11.68;;
15697;SDS011;7949;48.726;9.102;2023-02-28T21:02:13;27.88;;;11.98;;
15697;SDS011;7949;48.726;9.102;2023-02-28T21:04:42;29.45;;;12.27;;
15697;SDS011;7949;48.726;9.102;2023-02-28T21:07:09;31.25;;;12.95;;
15697;SDS011;7949;48.726;9.102;2023-02-28T21:09:35;33.40;;;13.27;;
15697;SDS011;7949;48.726;9.102;2023-02-28T21:12:04;29.23;;;12.68;;
15697;SDS011;7949;48.726;9.102;2023-02-28T21:14:31;39.22;;;13.18;;
15697;SDS011;7949;48.726;9.102;2023-02-28T21:16:59;29.13;;;12.25;;
15697;SDS011;7949;48.726;9.102;2023-02-28T21:19:26;27.42;;;11.60;;
15697;SDS011;7949;48.726;9.102;2023-02-28T21:21:53;29.50;;;13.15;;
15697;SDS011;7949;48.726;9.102;2023-02-28T21:41:44;32.30;;;14.07;;
15697;SDS011;7949;48.726;9.102;2023-02-28T21:44:26;33.07;;;13.80;;
15697;SDS011;7949;48.726;9.102;2023-02-28T21:47:02;28.10;;;11.90;;
15697;SDS011;7949;48.726;9.102;2023-02-28T21:49:29;31.80;;;12.70;;
15697;SDS011;7949;48.726;9.102;2023-02-28T21:51:56;31.92;;;12.50;;
15697;SDS011;7949;48.726;9.102;2023-02-28T21:54:23;27.23;;;12.27;;
15697;SDS011;7949;48.726;9.102;2023-02-28T21:56:52;31.45;;;12.77;;
15697;SDS011;7949;48.726;9.102;2023-02-28T21:59:20;28.23;;;12.52;;
15697;SDS011;7949;48.726;9.102;2023-02-28T22:01:47;31.30;;;12.43;;
15697;SDS011;7949;48.726;9.102;2023-02-28T22:04:15;31.48;;;12.23;;
15697;SDS011;7949;48.726;9.102;2023-02-28T22:06:46;31.45;;;12.60;;
15697;SDS011;7949;48.726;9.102;2023-02-28T22:09:14;31.77;;;13.38;;
15697;SDS011;7949;48.726;9.102;2023-02-28T22:11:43;32.22;;;12.98;;
15697;SDS011;7949;48.726;9.102;2023-02-28T22:14:11;32.15;;;13.27;;
15697;SDS011;7949;48.726;9.102;2023-02-28T22:16:38;28.48;;;12.07;;
15697;SDS011;7949;48.726;9.102;2023-02-28T22:19:06;32.88;;;12.80;;
15697;SDS011;7949;48.726;9.102;2023-02-28T22:21:33;31.55;;;12.88;;
15697;SDS011;7949;48.726;9.102;2023-02-28T22:24:00;32.72;;;13.23;;
15697;SDS011;7949;48.726;9.102;2023-02-28T22:26:28;39.30;;;12.82;;
15697;SDS011;7949;48.726;9.102;2023-02-28T22:28:55;32.47;;;12.50;;
15697;SDS011;7949;48.726;9.102;2023-02-28T22:31:25;37.47;;;13.15;;
15697;SDS011;7949;48.726;9.102;2023-02-28T22:33:54;37.58;;;14.32;;
15697;SDS011;7949;48.726;9.102;2023-02-28T22:36:23;38.13;;;13.38;;
15697;SDS011;7949;48.726;9.102;2023-02-28T22:38:50;38.05;;;12.98;;
15697;SDS011;7949;48.726;9.102;2023-02-28T22:41:18;37.50;;;12.00;;
15697;SDS011;7949;48.726;9.102;2023-02-28T22:43:49;32.42;;;13.07;;
15697;SDS011;7949;48.726;9.102;2023-02-28T22:46:17;34.67;;;14.23;;
15697;SDS011;7949;48.726;9.102;2023-02-28T22:48:46;32.75;;;12.55;;
15697;SDS011;7949;48.726;9.102;2023-02-28T22:51:15;30.67;;;12.55;;
15697;SDS011;7949;48.726;9.102;2023-02-28T22:53:44;35.10;;;13.27;;
15697;SDS011;7949;48.726;9.102;2023-02-28T22:56:13;36.67;;;12.80;;
15697;SDS011;7949;48.726;9.102;2023-02-28T22:58:41;35.03;;;13.07;;
15697;SDS011;7949;48.726;9.102;2023-02-28T23:01:09;40.83;;;14.13;;
15697;SDS011;7949;48.726;9.102;2023-02-28T23:03:37;35.17;;;13.35;;
15697;SDS011;7949;48.726;9.102;2023-02-28T23:06:12;34.55;;;13.77;;
15697;SDS011;7949;48.726;9.102;2023-02-28T23:08:39;38.03;;;13.23;;
15697;SDS011;7949;48.726;9.102;2023-02-28T23:11:06;38.70;;;14.23;;
15697;SDS011;7949;48.726;9.102;2023-02-28T23:13:33;35.13;;;14.35;;
15697;SDS011;7949;48.726;9.102;2023-02-28T23:16:02;34.58;;;13.25;;
15697;SDS011;7949;48.726;9.102;2023-02-28T23:18:30;30.73;;;12.95;;
15697;SDS011;7949;48.726;9.102;2023-02-28T23:20:57;31.55;;;12.32;;
15697;SDS011;7949;48.726;9.102;2023-02-28T23:23:25;31.27;;;13.25;;
15697;SDS011;7949;48.726;9.102;2023-02-28T23:25:52;30.70;;;12.23;;
15697;SDS011;7949;48.726;9.102;2023-02-28T23:28:19;33.25;;;13.48;;
15697;SDS011;7949;48.726;9.102;2023-02-28T23:30:47;32.15;;;12.30;;
15697;SDS011;7949;48.726;9.102;2023-02-28T23:33:13;29.90;;;12.63;;
15697;SDS011;7949;48.726;9.102;2023-02-28T23:35:40;38.13;;;14.20;;
15697;SDS011;7949;48.726;9.102;2023-02-28T23:38:07;33.28;;;13.75;;
15697;SDS011;7949;48.726;9.102;2023-02-28T23:40:35;33.63;;;12.90;;
15697;SDS011;7949;48.726;9.102;2023-02-28T23:43:02;36.40;;;13.20;;
15697;SDS011;7949;48.726;9.102;2023-02-28T23:45:29;29.88;;;12.82;;
15697;SDS011;7949;48.726;9.102;2023-02-28T23:47:56;32.33;;;13.38;;
15697;SDS011;7949;48.726;9.102;2023-02-28T23:50:23;28.10;;;12.05;;
15697;SDS011;7949;48.726;9.102;2023-02-28T23:52:49;34.80;;;12.93;;
15697;SDS011;7949;48.726;9.102;2023-02-28T23:55:17;32.15;;;12.65;;
15697;SDS011;7949;48.726;9.102;2023-02-28T23:57:46;32.92;;;12.57;;
